createdAt,value
2023-06-01T00:00:26.181Z,100753.38
2023-06-01T00:03:46.063Z,100753.80
2023-06-01T00:06:16.532Z,100751.17
2023-06-01T00:08:52.244Z,100750.65
2023-06-01T00:11:31.720Z,100744.62
2023-06-01T00:14:10.796Z,100745.04
2023-06-01T00:16:49.488Z,100741.33
2023-06-01T00:19:28.427Z,100736.21
2023-06-01T00:22:08.618Z,100737.24
2023-06-01T00:24:47.228Z,100735.45
2023-06-01T00:27:25.481Z,100736.18
2023-06-01T00:30:03.884Z,100736.05
2023-06-01T00:32:41.827Z,100732.09
2023-06-01T00:35:20.281Z,100731.09
2023-06-01T00:37:58.525Z,100726.98
2023-06-01T00:40:36.610Z,100728.60
2023-06-01T00:43:15.051Z,100727.80
2023-06-01T00:45:53.401Z,100721.80
2023-06-01T00:48:32.046Z,100722.64
2023-06-01T00:51:16.346Z,100720.55
2023-06-01T00:53:55.355Z,100721.89
2023-06-01T00:56:34.535Z,100718.59
2023-06-01T00:59:14.645Z,100717.89
2023-06-01T01:01:53.705Z,100719.12
2023-06-01T01:04:27.836Z,100716.96
2023-06-01T01:07:28.204Z,100716.61
2023-06-01T01:10:31.988Z,100717.84
2023-06-01T01:13:29.687Z,100713.70
2023-06-01T01:16:33.601Z,100713.01
2023-06-01T01:19:46.529Z,100703.98
2023-06-01T01:23:02.626Z,100709.79
2023-06-01T01:25:54.937Z,100705.09
2023-06-01T01:28:51.814Z,100701.45
2023-06-01T01:31:32.157Z,100700.42
2023-06-01T01:34:11.529Z,100693.31
2023-06-01T01:36:50.867Z,100691.52
2023-06-01T01:39:30.088Z,100689.64
2023-06-01T01:42:09.102Z,100686.70
2023-06-01T01:44:47.801Z,100688.61
2023-06-01T01:47:36.010Z,100685.34
2023-06-01T01:50:13.903Z,100685.95
2023-06-01T01:52:53.226Z,100686.73
2023-06-01T01:55:32.223Z,100685.74
2023-06-01T01:58:09.817Z,100678.33
2023-06-01T02:00:49.725Z,100680.13
2023-06-01T02:03:29.527Z,100678.03
2023-06-01T02:06:08.588Z,100677.15
2023-06-01T02:08:47.074Z,100676.11
2023-06-01T02:11:26.137Z,100671.46
2023-06-01T02:14:04.746Z,100670.52
2023-06-01T02:16:35.093Z,100669.61
2023-06-01T02:19:16.901Z,100666.90
2023-06-01T02:21:54.800Z,100656.77
2023-06-01T02:24:33.233Z,100664.63
2023-06-01T02:27:13.344Z,100661.64
2023-06-01T02:29:51.107Z,100661.99
2023-06-01T02:32:32.037Z,100659.79
2023-06-01T02:35:11.873Z,100657.29
2023-06-01T02:37:50.880Z,100660.38
2023-06-01T02:40:29.090Z,100659.60
2023-06-01T02:43:08.090Z,100660.42
2023-06-01T02:45:46.186Z,100662.48
2023-06-01T02:48:16.816Z,100659.51
2023-06-01T02:50:53.879Z,100655.78
2023-06-01T02:53:32.793Z,100648.05
2023-06-01T02:56:09.755Z,100653.72
2023-06-01T02:58:48.113Z,100652.70
2023-06-01T03:01:27.734Z,100647.73
2023-06-01T03:04:06.576Z,100648.84
2023-06-01T03:06:46.901Z,100646.32
2023-06-01T03:09:26.027Z,100644.84
2023-06-01T03:12:05.297Z,100644.02
2023-06-01T03:14:43.580Z,100648.27
2023-06-01T03:17:22.466Z,100646.85
2023-06-01T03:20:00.810Z,100645.09
2023-06-01T03:22:37.077Z,100642.08
2023-06-01T03:25:17.805Z,100640.56
2023-06-01T03:27:56.653Z,100637.89
2023-06-01T03:30:35.459Z,100639.77
2023-06-01T03:33:14.584Z,100634.70
2023-06-01T03:35:53.630Z,100637.81
2023-06-01T03:38:32.357Z,100636.77
2023-06-01T03:41:11.637Z,100633.30
2023-06-01T03:43:51.161Z,100637.82
2023-06-01T03:46:30.079Z,100638.02
2023-06-01T03:49:00.410Z,100635.41
2023-06-01T03:51:37.410Z,100626.33
2023-06-01T03:54:15.762Z,100630.77
2023-06-01T03:56:54.266Z,100632.38
2023-06-01T03:59:33.442Z,100623.25
2023-06-01T04:02:14.263Z,100631.36
2023-06-01T04:04:52.657Z,100631.47
2023-06-01T04:07:32.263Z,100632.81
2023-06-01T04:10:12.671Z,100628.27
2023-06-01T04:12:52.360Z,100624.49
2023-06-01T04:15:31.668Z,100624.33
2023-06-01T04:18:11.418Z,100618.75
2023-06-01T04:20:50.435Z,100618.95
2023-06-01T04:23:29.496Z,100608.87
2023-06-01T04:26:08.310Z,100604.94
2023-06-01T04:28:47.747Z,100602.36
2023-06-01T04:31:26.728Z,100598.75
2023-06-01T04:34:06.858Z,100599.66
2023-06-01T04:36:45.794Z,100600.77
2023-06-01T04:39:24.885Z,100595.02
2023-06-01T04:42:04.291Z,100587.09
2023-06-01T04:44:43.162Z,100581.71
2023-06-01T04:47:23.380Z,100582.11
2023-06-01T04:50:02.228Z,100580.55
2023-06-01T04:52:46.270Z,100573.91
2023-06-01T04:55:25.816Z,100572.04
2023-06-01T04:58:05.170Z,100565.67
2023-06-01T05:00:44.271Z,100561.48
2023-06-01T05:03:22.979Z,100559.20
2023-06-01T05:06:02.294Z,100554.84
2023-06-01T05:08:43.728Z,100551.17
2023-06-01T05:11:22.940Z,100553.48
2023-06-01T05:13:54.007Z,100548.23
2023-06-01T05:16:27.115Z,100547.53
2023-06-01T05:18:58.974Z,100546.44
2023-06-01T05:21:38.619Z,100538.01
2023-06-01T05:24:18.269Z,100538.25
2023-06-01T05:26:57.106Z,100534.45
2023-06-01T05:29:39.042Z,100537.16
2023-06-01T05:32:18.921Z,100537.59
2023-06-01T05:34:57.767Z,100537.48
2023-06-01T05:37:36.751Z,100531.86
2023-06-01T05:40:16.884Z,100535.89
2023-06-01T05:42:55.276Z,100531.53
2023-06-01T05:45:34.540Z,100525.83
2023-06-01T05:48:16.261Z,100532.81
2023-06-01T05:50:56.145Z,100529.42
2023-06-01T05:53:33.356Z,100530.35
2023-06-01T05:56:10.453Z,100529.88
2023-06-01T05:58:56.624Z,100527.30
2023-06-01T06:01:28.707Z,100529.02
2023-06-01T06:04:08.777Z,100528.12
2023-06-01T06:06:48.250Z,100531.89
2023-06-01T06:09:28.158Z,100529.73
2023-06-01T06:12:10.731Z,100527.38
2023-06-01T06:14:52.164Z,100529.94
2023-06-01T06:17:30.980Z,100525.38
2023-06-01T06:20:12.168Z,100523.92
2023-06-01T06:22:54.898Z,100521.29
2023-06-01T06:25:34.692Z,100517.23
2023-06-01T06:28:15.875Z,100515.63
2023-06-01T06:30:50.572Z,100515.18
2023-06-01T06:33:30.103Z,100513.62
2023-06-01T06:36:10.924Z,100512.56
2023-06-01T06:38:50.416Z,100515.89
2023-06-01T06:41:29.779Z,100511.27
2023-06-01T06:44:09.574Z,100514.26
2023-06-01T06:46:50.267Z,100511.66
2023-06-01T06:49:30.236Z,100510.96
2023-06-01T06:52:12.446Z,100512.73
2023-06-01T06:54:52.629Z,100512.55
2023-06-01T06:57:35.373Z,100509.04
2023-06-01T07:00:16.779Z,100504.58
2023-06-01T07:02:57.979Z,100506.36
2023-06-01T07:05:37.722Z,100501.19
2023-06-01T07:08:17.760Z,100498.63
2023-06-01T07:10:57.583Z,100491.62
2023-06-01T07:13:37.211Z,100495.91
2023-06-01T07:16:17.446Z,100496.13
2023-06-01T07:18:57.685Z,100498.87
2023-06-01T07:21:38.101Z,100492.66
2023-06-01T07:24:20.644Z,100485.33
2023-06-01T07:27:01.178Z,100487.72
2023-06-01T07:29:41.061Z,100487.98
2023-06-01T07:32:20.809Z,100487.21
2023-06-01T07:35:03.564Z,100479.45
2023-06-01T07:37:42.902Z,100478.89
2023-06-01T07:40:23.430Z,100475.41
2023-06-01T07:43:03.653Z,100460.89
2023-06-01T07:45:43.004Z,100471.11
2023-06-01T07:48:22.585Z,100470.69
2023-06-01T07:51:02.532Z,100465.81
2023-06-01T07:53:41.971Z,100461.17
2023-06-01T07:56:22.529Z,100460.44
2023-06-01T07:59:03.390Z,100458.58
2023-06-01T08:01:43.622Z,100459.30
2023-06-01T08:04:23.778Z,100463.82
2023-06-01T08:07:05.982Z,100459.27
2023-06-01T08:09:44.783Z,100456.73
2023-06-01T08:12:23.764Z,100458.65
2023-06-01T08:15:02.701Z,100459.05
2023-06-01T08:17:41.948Z,100446.38
2023-06-01T08:20:27.316Z,100454.40
2023-06-01T08:23:04.706Z,100450.88
2023-06-01T08:25:44.210Z,100451.16
2023-06-01T08:28:23.735Z,100450.82
2023-06-01T08:31:03.370Z,100450.95
2023-06-01T08:33:36.384Z,100450.98
2023-06-01T08:36:16.792Z,100448.19
2023-06-01T08:38:58.182Z,100443.98
2023-06-01T08:41:43.713Z,100443.55
2023-06-01T08:44:25.079Z,100443.63
2023-06-01T08:47:05.518Z,100438.82
2023-06-01T08:49:46.487Z,100433.82
2023-06-01T08:52:30.305Z,100433.05
2023-06-01T08:55:06.379Z,100432.57
2023-06-01T08:57:45.386Z,100421.73
2023-06-01T09:00:25.438Z,100421.47
2023-06-01T09:03:05.715Z,100421.98
2023-06-01T09:05:45.604Z,100419.17
2023-06-01T09:08:30.214Z,100409.55
2023-06-01T09:11:06.138Z,100403.49
2023-06-01T09:13:46.149Z,100405.73
2023-06-01T09:16:38.524Z,100411.20
2023-06-01T09:19:10.587Z,100409.99
2023-06-01T09:22:04.379Z,100408.77
2023-06-01T09:24:58.197Z,100412.52
2023-06-01T09:27:50.893Z,100404.59
2023-06-01T09:30:47.331Z,100406.02
2023-06-01T09:33:28.539Z,100401.14
2023-06-01T09:36:09.781Z,100401.98
2023-06-01T09:38:48.784Z,100399.38
2023-06-01T09:41:28.484Z,100400.81
2023-06-01T09:44:08.355Z,100397.41
2023-06-01T09:47:02.004Z,100391.11
2023-06-01T09:49:46.952Z,100391.69
2023-06-01T09:52:27.362Z,100386.18
2023-06-01T09:55:11.027Z,100381.71
2023-06-01T09:57:47.629Z,100384.59
2023-06-01T10:00:28.255Z,100381.58
2023-06-01T10:03:08.600Z,100379.56
2023-06-01T10:05:48.370Z,100375.39
2023-06-01T10:08:28.139Z,100369.11
2023-06-01T10:11:05.915Z,100377.33
2023-06-01T10:13:44.884Z,100368.27
2023-06-01T10:16:24.484Z,100369.85
2023-06-01T10:19:04.641Z,100380.13
2023-06-01T10:21:47.500Z,100373.66
2023-06-01T10:24:28.356Z,100369.75
2023-06-01T10:27:47.371Z,100363.21
2023-06-01T10:30:26.999Z,100362.48
2023-06-01T10:33:06.175Z,100361.85
2023-06-01T10:35:48.538Z,100351.61
2023-06-01T10:38:28.634Z,100361.08
2023-06-01T10:41:39.188Z,100359.64
2023-06-01T10:44:43.108Z,100356.29
2023-06-01T10:47:41.624Z,100348.98
2023-06-01T10:50:22.469Z,100348.81
2023-06-01T10:53:33.671Z,100341.08
2023-06-01T10:56:29.138Z,100337.73
2023-06-01T11:01:49.167Z,100325.47
2023-06-01T11:04:42.667Z,100324.28
2023-06-01T11:07:45.719Z,100325.51
2023-06-01T11:11:07.901Z,100321.89
2023-06-01T11:13:48.081Z,100309.42
2023-06-01T11:16:28.157Z,100316.33
2023-06-01T11:19:10.468Z,100315.25
2023-06-01T11:21:50.313Z,100314.17
2023-06-01T11:24:33.045Z,100309.71
2023-06-01T11:27:12.641Z,100304.00
2023-06-01T11:29:50.266Z,100305.97
2023-06-01T11:32:30.092Z,100299.78
2023-06-01T11:35:23.004Z,100301.25
2023-06-01T11:38:05.718Z,100298.80
2023-06-01T11:40:39.786Z,100294.27
2023-06-01T11:43:12.913Z,100295.58
2023-06-01T11:46:21.843Z,100287.92
2023-06-01T11:49:13.786Z,100282.60
2023-06-01T11:51:52.661Z,100282.65
2023-06-01T11:54:31.420Z,100281.26
2023-06-01T11:57:12.745Z,100274.34
2023-06-01T11:59:51.530Z,100273.63
2023-06-01T12:02:29.301Z,100269.77
2023-06-01T12:05:11.099Z,100263.74
2023-06-01T12:07:52.648Z,100261.42
2023-06-01T12:10:32.096Z,100260.67
2023-06-01T12:13:12.562Z,100260.40
2023-06-01T12:15:52.905Z,100257.00
2023-06-01T12:18:33.074Z,100253.05
2023-06-01T12:21:14.262Z,100249.45
2023-06-01T12:23:53.981Z,100248.96
2023-06-01T12:26:39.194Z,100239.49
2023-06-01T12:29:12.157Z,100239.27
2023-06-01T12:32:05.563Z,100233.09
2023-06-01T12:35:05.896Z,100234.31
2023-06-01T12:37:46.874Z,100231.64
2023-06-01T12:40:32.516Z,100233.82
2023-06-01T12:43:20.992Z,100231.65
2023-06-01T12:45:53.596Z,100230.45
2023-06-01T12:48:38.335Z,100224.05
2023-06-01T12:51:13.723Z,100225.48
2023-06-01T12:53:52.928Z,100224.38
2023-06-01T12:56:33.924Z,100216.44
2023-06-01T12:59:12.689Z,100217.48
2023-06-01T13:01:52.704Z,100213.85
2023-06-01T13:04:32.761Z,100206.95
2023-06-01T13:07:13.360Z,100206.18
2023-06-01T13:09:52.767Z,100204.80
2023-06-01T13:12:29.572Z,100204.02
2023-06-01T13:15:11.233Z,100199.42
2023-06-01T13:17:49.423Z,100203.05
2023-06-01T13:20:25.435Z,100199.92
2023-06-01T13:23:08.741Z,100199.30
2023-06-01T13:25:50.583Z,100185.81
2023-06-01T13:28:33.853Z,100187.61
2023-06-01T13:31:09.421Z,100184.27
2023-06-01T13:33:54.508Z,100186.02
2023-06-01T13:36:34.427Z,100191.32
2023-06-01T13:39:14.370Z,100183.92
2023-06-01T13:41:54.787Z,100184.85
2023-06-01T13:44:35.204Z,100181.29
2023-06-01T13:47:16.184Z,100178.83
2023-06-01T13:49:54.258Z,100178.05
2023-06-01T13:52:32.692Z,100174.52
2023-06-01T13:55:13.259Z,100176.07
2023-06-01T13:57:52.226Z,100176.61
2023-06-01T14:00:30.901Z,100172.42
2023-06-01T14:03:09.889Z,100164.84
2023-06-01T14:06:04.071Z,100164.31
2023-06-01T14:08:37.136Z,100158.34
2023-06-01T14:11:14.943Z,100164.33
2023-06-01T14:13:54.473Z,100157.09
2023-06-01T14:16:34.793Z,100151.75
2023-06-01T14:19:13.666Z,100157.47
2023-06-01T14:21:52.019Z,100155.20
2023-06-01T14:24:31.667Z,100155.45
2023-06-01T14:27:10.497Z,100147.65
2023-06-01T14:29:49.464Z,100144.60
2023-06-01T14:32:29.342Z,100135.35
2023-06-01T14:35:10.025Z,100133.74
2023-06-01T14:37:50.323Z,100131.14
2023-06-01T14:40:33.319Z,100136.31
2023-06-01T14:43:14.151Z,100134.40
2023-06-01T14:45:53.338Z,100130.50
2023-06-01T14:48:33.150Z,100125.30
2023-06-01T14:51:11.859Z,100128.40
2023-06-01T14:53:50.957Z,100124.70
2023-06-01T14:56:30.055Z,100126.59
2023-06-01T14:59:08.404Z,100121.98
2023-06-01T15:01:47.631Z,100125.95
2023-06-01T15:04:26.741Z,100118.95
2023-06-01T15:07:05.406Z,100113.58
2023-06-01T15:09:43.721Z,100107.08
2023-06-01T15:12:22.412Z,100113.20
2023-06-01T15:15:01.097Z,100112.82
2023-06-01T15:17:40.665Z,100112.16
2023-06-01T15:20:20.041Z,100115.14
2023-06-01T15:22:50.792Z,100109.11
2023-06-01T15:25:22.781Z,100108.67
2023-06-01T15:27:57.325Z,100103.41
2023-06-01T15:30:35.565Z,100101.42
2023-06-01T15:33:16.246Z,100102.84
2023-06-01T15:35:55.393Z,100096.39
2023-06-01T15:38:33.807Z,100091.70
2023-06-01T15:41:15.969Z,100084.98
2023-06-01T15:43:55.912Z,100087.27
2023-06-01T15:46:35.065Z,100087.25
2023-06-01T15:49:15.030Z,100088.24
2023-06-01T15:51:53.526Z,100075.62
2023-06-01T15:54:33.880Z,100079.96
2023-06-01T15:57:15.886Z,100075.63
2023-06-01T15:59:55.093Z,100077.31
2023-06-01T16:02:34.452Z,100076.04
2023-06-01T16:05:15.504Z,100077.36
2023-06-01T16:07:54.239Z,100075.42
2023-06-01T16:10:32.820Z,100073.58
2023-06-01T16:13:12.216Z,100071.45
2023-06-01T16:15:50.615Z,100070.44
2023-06-01T16:18:29.230Z,100065.11
2023-06-01T16:21:07.663Z,100065.93
2023-06-01T16:23:46.133Z,100063.33
2023-06-01T16:26:25.830Z,100065.49
2023-06-01T16:29:05.053Z,100065.71
2023-06-01T16:31:44.209Z,100061.88
2023-06-01T16:34:22.835Z,100060.68
2023-06-01T16:37:02.168Z,100054.28
2023-06-01T16:39:41.389Z,100055.67
2023-06-01T16:42:21.302Z,100061.30
2023-06-01T16:45:00.505Z,100059.84
2023-06-01T16:47:38.566Z,100058.52
2023-06-01T16:50:17.787Z,100055.15
2023-06-01T16:52:57.893Z,100055.49
2023-06-01T16:55:34.718Z,100050.42
2023-06-01T16:58:14.904Z,100048.35
2023-06-01T17:00:54.341Z,100043.87
2023-06-01T17:03:26.977Z,100040.60
2023-06-01T17:06:00.383Z,100039.23
2023-06-01T17:08:40.329Z,100038.77
2023-06-01T17:11:20.582Z,100039.00
2023-06-01T17:14:00.334Z,100029.79
2023-06-01T17:16:40.428Z,100039.42
2023-06-01T17:19:20.017Z,100031.36
2023-06-01T17:21:59.312Z,100032.48
2023-06-01T17:24:38.000Z,100042.48
2023-06-01T17:27:18.523Z,100041.66
2023-06-01T17:29:58.148Z,100042.89
2023-06-01T17:32:37.559Z,100046.23
2023-06-01T17:35:17.681Z,100046.66
2023-06-01T17:37:56.897Z,100045.15
2023-06-01T17:40:36.864Z,100047.44
2023-06-01T17:43:17.722Z,100049.90
2023-06-01T17:45:57.972Z,100046.77
2023-06-01T17:48:38.842Z,100051.30
2023-06-01T17:51:17.738Z,100052.20
2023-06-01T17:53:56.584Z,100050.98
2023-06-01T17:56:35.088Z,100053.77
2023-06-01T17:59:17.106Z,100055.17
2023-06-01T18:01:57.747Z,100055.89
2023-06-01T18:04:34.430Z,100053.09
2023-06-01T18:07:14.750Z,100058.32
2023-06-01T18:09:55.090Z,100057.92
2023-06-01T18:12:35.807Z,100060.17
2023-06-01T18:15:16.298Z,100062.77
2023-06-01T18:17:56.940Z,100062.41
2023-06-01T18:20:36.461Z,100065.52
2023-06-01T18:23:16.911Z,100065.33
2023-06-01T18:25:57.408Z,100061.09
2023-06-01T18:28:37.151Z,100066.31
2023-06-01T18:31:19.073Z,100071.14
2023-06-01T18:33:58.987Z,100072.47
2023-06-01T18:36:39.375Z,100073.48
2023-06-01T18:39:19.188Z,100073.95
2023-06-01T18:41:59.669Z,100073.73
2023-06-01T18:44:39.417Z,100077.53
2023-06-01T18:47:20.023Z,100075.94
2023-06-01T18:50:03.329Z,100081.45
2023-06-01T18:52:35.660Z,100087.67
2023-06-01T18:55:17.995Z,100085.19
2023-06-01T18:57:58.798Z,100088.60
2023-06-01T19:00:38.759Z,100086.30
2023-06-01T19:03:21.236Z,100094.45
2023-06-01T19:06:02.345Z,100095.41
2023-06-01T19:08:43.147Z,100097.08
2023-06-01T19:11:22.853Z,100100.00
2023-06-01T19:14:03.190Z,100102.18
2023-06-01T19:16:36.736Z,100101.92
2023-06-01T19:19:17.028Z,100104.15
2023-06-01T19:21:57.921Z,100102.88
2023-06-01T19:24:37.349Z,100108.56
2023-06-01T19:27:17.728Z,100106.36
2023-06-01T19:29:57.602Z,100107.66
2023-06-01T19:32:37.432Z,100105.99
2023-06-01T19:35:17.507Z,100104.05
2023-06-01T19:37:55.635Z,100104.54
2023-06-01T19:40:36.271Z,100104.65
2023-06-01T19:43:43.228Z,100094.58
2023-06-01T19:46:27.230Z,100102.23
2023-06-01T19:49:07.036Z,100107.00
2023-06-01T19:51:46.098Z,100103.45
2023-06-01T19:54:29.910Z,100102.96
2023-06-01T19:57:12.675Z,100100.42
2023-06-01T19:59:54.300Z,100103.96
2023-06-01T20:02:54.816Z,100107.51
2023-06-01T20:05:27.350Z,100108.43
2023-06-01T20:08:09.009Z,100114.15
2023-06-01T20:10:47.263Z,100109.70
2023-06-01T20:13:25.865Z,100106.83
2023-06-01T20:16:05.720Z,100112.10
2023-06-01T20:18:45.831Z,100115.50
2023-06-01T20:21:24.910Z,100110.05
2023-06-01T20:24:04.334Z,100110.12
2023-06-01T20:26:43.418Z,100109.20
2023-06-01T20:29:22.977Z,100113.81
2023-06-01T20:32:02.923Z,100111.01
2023-06-01T20:34:41.838Z,100112.18
2023-06-01T20:37:21.959Z,100096.77
2023-06-01T20:40:01.503Z,100106.66
2023-06-01T20:42:41.879Z,100103.79
2023-06-01T20:46:02.229Z,100105.65
2023-06-01T20:49:01.679Z,100102.05
2023-06-01T20:51:44.751Z,100104.52
2023-06-01T20:54:31.994Z,100105.66
2023-06-01T20:57:12.096Z,100106.41
2023-06-01T20:59:50.987Z,100109.12
2023-06-01T21:02:31.186Z,100117.17
2023-06-01T21:05:12.449Z,100115.83
2023-06-01T21:07:50.434Z,100117.20
2023-06-01T21:10:29.164Z,100117.76
2023-06-01T21:13:08.503Z,100116.92
2023-06-01T21:15:47.002Z,100117.35
2023-06-01T21:18:26.611Z,100121.42
2023-06-01T21:21:05.407Z,100119.93
2023-06-01T21:23:44.725Z,100117.41
2023-06-01T21:26:17.031Z,100115.77
2023-06-01T21:28:49.110Z,100116.39
2023-06-01T21:31:27.789Z,100116.77
2023-06-01T21:33:59.953Z,100118.88
2023-06-01T21:36:38.375Z,100126.75
2023-06-01T21:39:17.702Z,100130.95
2023-06-01T21:41:50.593Z,100134.36
2023-06-01T21:44:29.834Z,100134.75
2023-06-01T21:47:09.696Z,100139.52
2023-06-01T21:49:47.834Z,100141.14
2023-06-01T21:52:27.365Z,100144.70
2023-06-01T21:55:07.096Z,100147.39
2023-06-01T21:57:46.463Z,100152.23
2023-06-01T22:00:25.235Z,100152.39
2023-06-01T22:03:04.177Z,100154.48
2023-06-01T22:05:42.609Z,100160.52
2023-06-01T22:08:13.044Z,100166.48
2023-06-01T22:10:49.953Z,100170.87
2023-06-01T22:13:28.319Z,100172.09
2023-06-01T22:16:07.094Z,100173.55
2023-06-01T22:18:45.234Z,100175.02
2023-06-01T22:21:23.948Z,100178.81
2023-06-01T22:24:02.033Z,100177.92
2023-06-01T22:26:40.726Z,100179.05
2023-06-01T22:29:18.922Z,100185.29
2023-06-01T22:31:57.773Z,100191.77
2023-06-01T22:34:37.085Z,100191.02
2023-06-01T22:37:16.870Z,100198.27
2023-06-01T22:39:55.109Z,100201.33
2023-06-01T22:42:33.109Z,100201.71
2023-06-01T22:45:13.014Z,100203.09
2023-06-01T22:47:51.221Z,100206.95
2023-06-01T22:50:30.210Z,100211.17
2023-06-01T22:53:09.227Z,100214.01
2023-06-01T22:55:47.544Z,100208.83
2023-06-01T22:58:25.937Z,100210.83
2023-06-01T23:01:05.971Z,100213.91
2023-06-01T23:03:46.573Z,100212.39
2023-06-01T23:06:17.308Z,100213.41
2023-06-01T23:08:52.696Z,100214.27
2023-06-01T23:11:33.792Z,100220.02
2023-06-01T23:14:14.180Z,100222.34
2023-06-01T23:16:51.708Z,100223.31
2023-06-01T23:19:35.764Z,100221.28
2023-06-01T23:22:16.471Z,100218.29
2023-06-01T23:24:51.788Z,100220.19
2023-06-01T23:27:30.047Z,100223.17
2023-06-01T23:30:10.117Z,100223.70
2023-06-01T23:32:49.832Z,100226.31
2023-06-01T23:35:29.279Z,100230.30
2023-06-01T23:38:12.230Z,100229.80
2023-06-01T23:40:51.329Z,100230.36
2023-06-01T23:43:29.418Z,100238.22
2023-06-01T23:46:08.242Z,100234.55
2023-06-01T23:48:47.202Z,100241.48
2023-06-01T23:51:26.933Z,100241.90
2023-06-01T23:54:05.296Z,100241.94
2023-06-01T23:56:38.741Z,100240.90
2023-06-01T23:59:17.543Z,100242.07
